UAEB8K LTBU-LTFD
Flight info
| Callsign | UAEB8K |
|---|---|
| Flight time | 0h 35m |
| Altitude | 25000 |
| Route | EKI DCT BIG DCT KONEN |
| Aircraft | A339/H-SADE1E2E3GHIJ3J5M1P2RWXY/LB2D1 |
Departure
| Time | 2026-05-04 08:17 |
|---|---|
| Airport | Tekirdağ Çorlu Airport (LTBU) |
Arrival
| Time | 2026-05-04 08:52 |
|---|---|
| Airport | Balıkesir Koca Seyit Airport (LTFD) |
| Time | Latitude | Longitude | Altitude | Speed | Heading |
|---|---|---|---|---|---|
| 2026-05-04 08:10 | 41.12761 | 27.90803 | 533 ft | 0 kts | 223° |
| 2026-05-04 08:14 | 41.12758 | 27.90799 | 533 ft | 5 kts | 224° |
| 2026-05-04 08:14 | 41.12770 | 27.90731 | 532 ft | 12 kts | 303° |
| 2026-05-04 08:16 | 41.12995 | 27.90628 | 526 ft | 0 kts | 48° |
| 2026-05-04 08:16 | 41.13000 | 27.90635 | 527 ft | 15 kts | 48° |
| 2026-05-04 08:16 | 41.13313 | 27.91099 | 537 ft | 117 kts | 49° |
| 2026-05-04 08:17 | 41.13998 | 27.92143 | 823 ft | 167 kts | 47° |
| 2026-05-04 08:17 | 41.14729 | 27.93314 | 1980 ft | 163 kts | 43° |
| 2026-05-04 08:17 | 41.15489 | 27.94433 | 3020 ft | 168 kts | 43° |
| 2026-05-04 08:17 | 41.16303 | 27.95634 | 3726 ft | 183 kts | 43° |
| 2026-05-04 08:19 | 41.25131 | 27.98849 | 9617 ft | 264 kts | 321° |
| 2026-05-04 08:19 | 41.26507 | 27.97149 | 10386 ft | 275 kts | 322° |
| 2026-05-04 08:20 | 41.27977 | 27.95405 | 10790 ft | 297 kts | 322° |
| 2026-05-04 08:20 | 41.29596 | 27.93540 | 11178 ft | 317 kts | 323° |
| 2026-05-04 08:20 | 41.31287 | 27.91609 | 11966 ft | 322 kts | 323° |
| 2026-05-04 08:20 | 41.32996 | 27.89652 | 12843 ft | 325 kts | 323° |
| 2026-05-04 08:21 | 41.34516 | 27.87363 | 13635 ft | 339 kts | 307° |
| 2026-05-04 08:21 | 41.35384 | 27.84391 | 14411 ft | 354 kts | 286° |
| 2026-05-04 08:21 | 41.35428 | 27.81059 | 15189 ft | 368 kts | 266° |
| 2026-05-04 08:21 | 41.34606 | 27.77776 | 15948 ft | 382 kts | 246° |
| 2026-05-04 08:22 | 41.33039 | 27.74878 | 16693 ft | 391 kts | 232° |
| 2026-05-04 08:22 | 41.31189 | 27.72200 | 17407 ft | 396 kts | 229° |
| 2026-05-04 08:24 | 41.18216 | 27.52179 | 21907 ft | 424 kts | 231° |
| 2026-05-04 08:24 | 41.16288 | 27.49197 | 22536 ft | 428 kts | 227° |
| 2026-05-04 08:24 | 41.13955 | 27.46695 | 23201 ft | 433 kts | 211° |
| 2026-05-04 08:24 | 41.11221 | 27.45024 | 23865 ft | 434 kts | 196° |
| 2026-05-04 08:25 | 41.08267 | 27.44251 | 24468 ft | 433 kts | 184° |
| 2026-05-04 08:25 | 41.05236 | 27.43953 | 24903 ft | 436 kts | 181° |
| 2026-05-04 08:25 | 41.02207 | 27.43685 | 25029 ft | 437 kts | 182° |
| 2026-05-04 08:25 | 40.99167 | 27.43312 | 25060 ft | 452 kts | 184° |
| 2026-05-04 08:26 | 40.96042 | 27.42822 | 25059 ft | 451 kts | 185° |
| 2026-05-04 08:27 | 40.74135 | 27.40703 | 25063 ft | 451 kts | 182° |
| 2026-05-04 08:28 | 40.71000 | 27.40416 | 24995 ft | 451 kts | 182° |
| 2026-05-04 08:28 | 40.67879 | 27.40131 | 24754 ft | 449 kts | 182° |
| 2026-05-04 08:28 | 40.64764 | 27.39847 | 24529 ft | 448 kts | 182° |
| 2026-05-04 08:28 | 40.61653 | 27.39563 | 24293 ft | 446 kts | 182° |
| 2026-05-04 08:29 | 40.58591 | 27.39283 | 24058 ft | 446 kts | 182° |
| 2026-05-04 08:29 | 40.55500 | 27.39002 | 23832 ft | 445 kts | 182° |
| 2026-05-04 08:29 | 40.52416 | 27.38722 | 23601 ft | 444 kts | 182° |
| 2026-05-04 08:31 | 40.31472 | 27.36827 | 19405 ft | 407 kts | 184° |
| 2026-05-04 08:33 | 40.11675 | 27.33393 | 14219 ft | 403 kts | 188° |
| 2026-05-04 08:33 | 40.08934 | 27.32878 | 13430 ft | 394 kts | 188° |
| 2026-05-04 08:35 | 39.91289 | 27.29607 | 9879 ft | 338 kts | 188° |
| 2026-05-04 08:35 | 39.89042 | 27.29189 | 9553 ft | 315 kts | 188° |
| 2026-05-04 08:35 | 39.86891 | 27.28784 | 9019 ft | 308 kts | 188° |
| 2026-05-04 08:35 | 39.84786 | 27.28401 | 8757 ft | 308 kts | 188° |
| 2026-05-04 08:37 | 39.76476 | 27.18027 | 7842 ft | 293 kts | 246° |
| 2026-05-04 08:37 | 39.75479 | 27.15772 | 7810 ft | 292 kts | 243° |
| 2026-05-04 08:37 | 39.74416 | 27.13517 | 7783 ft | 292 kts | 242° |
| 2026-05-04 08:38 | 39.73331 | 27.11277 | 7731 ft | 294 kts | 242° |
| 2026-05-04 08:38 | 39.72226 | 27.09048 | 7717 ft | 295 kts | 239° |
| 2026-05-04 08:38 | 39.71000 | 27.06899 | 7693 ft | 295 kts | 237° |
| 2026-05-04 08:40 | 39.62519 | 26.91975 | 7477 ft | 291 kts | 237° |
| 2026-05-04 08:40 | 39.61315 | 26.89853 | 7458 ft | 293 kts | 237° |
| 2026-05-04 08:40 | 39.60113 | 26.87726 | 7420 ft | 290 kts | 237° |
| 2026-05-04 08:41 | 39.58914 | 26.85610 | 7391 ft | 292 kts | 237° |
| 2026-05-04 08:41 | 39.57706 | 26.83491 | 7348 ft | 292 kts | 237° |
| 2026-05-04 08:41 | 39.56527 | 26.81426 | 7306 ft | 283 kts | 237° |
| 2026-05-04 08:41 | 39.55401 | 26.79459 | 7247 ft | 259 kts | 237° |
| 2026-05-04 08:42 | 39.54333 | 26.77588 | 7270 ft | 259 kts | 237° |
| 2026-05-04 08:42 | 39.53285 | 26.75747 | 7222 ft | 248 kts | 237° |
| 2026-05-04 08:42 | 39.52290 | 26.74003 | 7104 ft | 233 kts | 237° |
| 2026-05-04 08:42 | 39.51351 | 26.72359 | 6882 ft | 224 kts | 237° |
| 2026-05-04 08:43 | 39.50445 | 26.70773 | 6697 ft | 212 kts | 238° |
| 2026-05-04 08:43 | 39.49865 | 26.69760 | 6623 ft | 203 kts | 238° |
| 2026-05-04 08:43 | 39.49044 | 26.68332 | 6442 ft | 196 kts | 237° |
| 2026-05-04 08:43 | 39.47966 | 26.67210 | 5944 ft | 209 kts | 205° |
| 2026-05-04 08:44 | 39.46551 | 26.66947 | 5610 ft | 206 kts | 170° |
| 2026-05-04 08:44 | 39.45306 | 26.67693 | 5467 ft | 195 kts | 132° |
| 2026-05-04 08:46 | 39.41070 | 26.77059 | 3950 ft | 170 kts | 46° |
| 2026-05-04 08:46 | 39.41897 | 26.78154 | 3617 ft | 170 kts | 39° |
| 2026-05-04 08:46 | 39.42743 | 26.79199 | 3411 ft | 171 kts | 40° |
| 2026-05-04 08:46 | 39.43564 | 26.80347 | 3222 ft | 173 kts | 44° |
| 2026-05-04 08:47 | 39.44303 | 26.81537 | 3139 ft | 165 kts | 49° |
| 2026-05-04 08:47 | 39.44964 | 26.82734 | 3140 ft | 157 kts | 50° |
| 2026-05-04 08:47 | 39.45534 | 26.83818 | 3113 ft | 138 kts | 50° |
| 2026-05-04 08:47 | 39.46096 | 26.84859 | 2960 ft | 139 kts | 50° |
| 2026-05-04 08:48 | 39.46632 | 26.85837 | 2766 ft | 129 kts | 49° |
| 2026-05-04 08:48 | 39.47152 | 26.86764 | 2543 ft | 126 kts | 49° |
| 2026-05-04 08:48 | 39.47673 | 26.87680 | 2289 ft | 125 kts | 47° |
| 2026-05-04 08:48 | 39.48194 | 26.88580 | 2039 ft | 129 kts | 49° |
| 2026-05-04 08:49 | 39.48742 | 26.89526 | 1775 ft | 128 kts | 50° |
| 2026-05-04 08:50 | 39.51886 | 26.95071 | 848 ft | 129 kts | 53° |
| 2026-05-04 08:50 | 39.52399 | 26.96009 | 738 ft | 124 kts | 52° |
| 2026-05-04 08:51 | 39.52906 | 26.96902 | 581 ft | 127 kts | 51° |
| 2026-05-04 08:51 | 39.53417 | 26.97814 | 404 ft | 126 kts | 49° |
| 2026-05-04 08:51 | 39.53952 | 26.98734 | 231 ft | 124 kts | 52° |
| 2026-05-04 08:51 | 39.54445 | 26.99620 | 87 ft | 121 kts | 54° |
| 2026-05-04 08:52 | 39.54935 | 27.00490 | 50 ft | 133 kts | 54° |
| 2026-05-04 08:52 | 39.55399 | 27.01309 | 53 ft | 74 kts | 53° |
| 2026-05-04 08:52 | 39.55677 | 27.01796 | 52 ft | 61 kts | 53° |
| 2026-05-04 08:52 | 39.55826 | 27.02059 | 54 ft | 29 kts | 54° |
| 2026-05-04 08:53 | 39.55938 | 27.02263 | 56 ft | 22 kts | 56° |
| 2026-05-04 08:54 | 39.55766 | 27.01965 | 54 ft | 33 kts | 233° |
| 2026-05-04 08:55 | 39.55618 | 27.01697 | 55 ft | 40 kts | 236° |
| 2026-05-04 08:55 | 39.55448 | 27.01376 | 53 ft | 46 kts | 236° |
| 2026-05-04 08:55 | 39.55306 | 27.01142 | 51 ft | 21 kts | 235° |
| 2026-05-04 08:55 | 39.55229 | 27.00993 | 50 ft | 7 kts | 228° |
| 2026-05-04 08:57 | 39.54979 | 27.01113 | 50 ft | 5 kts | 149° |
| 2026-05-04 09:01 | 39.54929 | 27.01154 | 55 ft | 0 kts | 147° |